Time;durP1;ratioP1;P1;durP2;ratioP2;P2;SDS_P1;SDS_P2;PMS_P1;PMS_P2;Temp;Humidity;BMP_temperature;BMP_pressure;BME280_temperature;BME280_humidity;BME280_pressure;Samples;Min_cycle;Max_cycle;Signal;HPM_P1;HPM_P2
2021/10/04 00:00:30;;;;;;;;;;;;;;;3.72;98.28;99531.78;4984615;28;20380;-79
2021/10/04 00:02:56;;;;;;;;;;;;;;;3.78;98.12;99532.56;4985068;28;19921;-79
2021/10/04 00:05:21;;;;;;;;;;;;;;;3.82;97.48;99531.59;4982520;28;20266;-80
2021/10/04 00:07:46;;;;;;;;;;;;;;;3.80;97.75;99533.41;4984283;28;19918;-78
2021/10/04 00:10:14;;;;;;;;;;;;;;;3.77;97.89;99525.59;4984702;28;19918;-79
2021/10/04 00:12:40;;;;;;;;;;;;;;;3.78;97.76;99527.31;4984618;28;19922;-78
2021/10/04 00:15:07;;;;;;;;;;;;;;;3.82;97.40;99530.75;4983969;28;20360;-78
2021/10/04 00:17:32;;;;;;;;;;;;;;;3.77;97.54;99525.59;4984558;28;19922;-78
2021/10/04 00:19:57;;;;;;;;;;;;;;;3.78;97.45;99540.44;4983191;28;19924;-78
2021/10/04 00:22:23;;;;;;;;;;;;;;;3.80;97.46;99543.03;4984054;28;19972;-79
2021/10/04 03:32:58;;;;;;;;;;;;;;;11.28;100.00;99573.19;4967300;28;19981;-79
2021/10/04 03:35:23;;;;;;;;;;;;;;;11.28;100.00;99557.28;4966418;28;19930;-79
2021/10/04 03:37:49;;;;;;;;;;;;;;;11.27;100.00;99560.88;4966881;28;20366;-78
2021/10/04 03:40:14;;;;;;;;;;;;;;;11.28;100.00;99573.19;4966324;28;19918;-77
2021/10/04 03:42:40;;;;;;;;;;;;;;;11.33;100.00;99564.97;4966665;28;20013;-78
2021/10/04 03:45:06;;;;;;;;;;;;;;;11.33;100.00;99559.69;4964978;28;19957;-77
2021/10/04 03:47:31;;;;;;;;;;;;;;;11.37;100.00;99572.72;4966238;28;20017;-78
2021/10/04 03:49:56;;;;;;;;;;;;;;;11.36;100.00;99570.13;4966334;28;20004;-79
2021/10/04 03:52:22;;;;;;;;;;;;;;;9.91;100.00;99571.53;4966634;28;20004;-80
2021/10/04 03:54:47;;;;;;;;;;;;;;;8.64;100.00;99574.00;4966787;28;19973;-79
2021/10/04 03:57:12;;;;;;;;;;;;;;;8.02;100.00;99583.31;4966187;28;20010;-81
2021/10/04 03:59:38;;;;;;;;;;;;;;;7.66;100.00;99594.25;4965243;28;19922;-81
2021/10/04 04:02:03;;;;;;;;;;;;;;;7.41;100.00;99596.81;4965815;28;19922;-81
2021/10/04 04:04:28;;;;;;;;;;;;;;;7.16;100.00;99612.56;4965484;28;19965;-79
2021/10/04 04:06:53;;;;;;;;;;;;;;;6.98;100.00;99608.75;4965887;28;20314;-80
2021/10/04 04:09:19;;;;;;;;;;;;;;;6.83;100.00;99610.94;4966173;28;19926;-80
2021/10/04 04:11:44;;;;;;;;;;;;;;;6.70;100.00;99620.97;4966046;28;19962;-80
2021/10/04 04:14:09;;;;;;;;;;;;;;;6.60;100.00;99618.66;4965891;28;20001;-80
2021/10/04 04:16:34;;;;;;;;;;;;;;;6.52;100.00;99630.25;4964257;28;19919;-80
2021/10/04 04:19:00;;;;;;;;;;;;;;;6.50;100.00;99632.06;4965909;28;20362;-80
2021/10/04 04:21:25;;;;;;;;;;;;;;;6.40;100.00;99642.91;4965933;28;19969;-81
2021/10/04 04:23:50;;;;;;;;;;;;;;;6.28;100.00;99638.84;4965502;28;20370;-80
2021/10/04 04:26:15;;;;;;;;;;;;;;;6.21;100.00;99643.44;4965398;28;19966;-80
2021/10/04 04:28:41;;;;;;;;;;;;;;;6.22;100.00;99642.50;4965637;28;19918;-81
2021/10/04 04:31:06;;;;;;;;;;;;;;;6.11;100.00;99632.28;4963942;28;20410;-80
2021/10/04 04:33:31;;;;;;;;;;;;;;;6.07;100.00;99635.03;4963941;28;19929;-80
2021/10/04 04:35:57;;;;;;;;;;;;;;;6.00;100.00;99652.75;4965195;28;19922;-80
2021/10/04 04:38:22;;;;;;;;;;;;;;;5.96;100.00;99661.59;4965804;28;20381;-80
2021/10/04 04:40:47;;;;;;;;;;;;;;;5.84;100.00;99662.78;4966129;28;19930;-80
2021/10/04 04:43:14;;;;;;;;;;;;;;;5.72;100.00;99661.31;4964822;28;19961;-80
2021/10/04 04:45:39;;;;;;;;;;;;;;;5.72;100.00;99671.81;4963960;28;19925;-81
2021/10/04 04:48:06;;;;;;;;;;;;;;;5.72;100.00;99671.81;4964906;28;19922;-81
2021/10/04 04:50:32;;;;;;;;;;;;;;;5.59;100.00;99660.75;4964801;28;19919;-80
2021/10/04 04:52:57;;;;;;;;;;;;;;;5.55;100.00;99674.88;4964756;28;19924;-80
2021/10/04 04:55:22;;;;;;;;;;;;;;;5.54;100.00;99670.50;4965259;28;19925;-80
2021/10/04 08:00:41;;;;;;;;;;;;;;;3.80;97.93;99806.00;4953263;23;20401;-79
2021/10/04 08:03:06;;;;;;;;;;;;;;;3.86;98.04;99819.88;4962872;28;19969;-79
2021/10/04 08:05:32;;;;;;;;;;;;;;;3.74;98.22;99836.66;4966336;28;19965;-79
2021/10/04 08:07:57;;;;;;;;;;;;;;;3.77;98.49;99831.38;4965720;28;19926;-79
2021/10/04 08:10:23;;;;;;;;;;;;;;;3.74;98.70;99841.91;4964628;28;20293;-79
2021/10/04 08:12:48;;;;;;;;;;;;;;;3.81;98.63;99838.28;4964301;28;19918;-79
2021/10/04 08:15:14;;;;;;;;;;;;;;;3.77;98.51;99821.75;4964764;28;19953;-79
2021/10/04 08:17:39;;;;;;;;;;;;;;;3.79;98.66;99838.31;4965480;28;20001;-80
2021/10/04 08:20:08;;;;;;;;;;;;;;;3.79;98.90;99840.94;4965699;28;19968;-79
2021/10/04 08:22:34;;;;;;;;;;;;;;;5.48;100.00;99840.63;4965252;28;19976;-81
2021/10/04 08:24:59;;;;;;;;;;;;;;;7.75;100.00;99849.75;4966545;28;19922;-78
2021/10/04 08:27:24;;;;;;;;;;;;;;;5.61;100.00;99852.59;4966208;28;19926;-79
2021/10/04 08:29:49;;;;;;;;;;;;;;;4.89;100.00;99857.53;4966606;28;20017;-79
2021/10/04 08:32:15;;;;;;;;;;;;;;;4.63;100.00;99850.13;4963956;28;19929;-80
2021/10/04 08:34:40;;;;;;;;;;;;;;;4.45;99.64;99851.31;4966187;28;19925;-80
2021/10/04 08:37:05;;;;;;;;;;;;;;;4.33;99.44;99842.75;4966772;28;20448;-80
2021/10/04 08:39:31;;;;;;;;;;;;;;;4.27;99.22;99840.22;4963472;28;19918;-79
2021/10/04 08:41:56;;;;;;;;;;;;;;;4.20;98.95;99841.22;4966889;28;20482;-80
2021/10/04 08:44:22;;;;;;;;;;;;;;;4.11;99.02;99844.84;4963057;28;19929;-79
2021/10/04 08:46:48;;;;;;;;;;;;;;;4.08;98.85;99850.13;4963964;28;19923;-79
2021/10/04 08:49:14;;;;;;;;;;;;;;;4.05;98.63;99860.66;4963394;28;19926;-79
2021/10/04 08:51:40;;;;;;;;;;;;;;;4.04;99.49;99864.19;4965970;28;19977;-79
2021/10/04 08:54:05;;;;;;;;;;;;;;;3.99;99.10;99858.16;4964724;28;19919;-79
2021/10/04 08:56:31;;;;;;;;;;;;;;;3.91;99.19;99862.63;4964424;28;20025;-78
2021/10/04 08:58:57;;;;;;;;;;;;;;;3.92;99.31;99864.38;4962731;28;19977;-79
2021/10/04 09:01:23;;;;;;;;;;;;;;;3.94;99.18;99870.44;4986892;28;19926;-81
2021/10/04 09:03:50;;;;;;;;;;;;;;;3.91;98.81;99866.13;4964543;28;20337;-79
2021/10/04 09:06:34;;;;;;;;;;;;;;;3.91;98.57;99865.25;4965233;28;19933;-79
2021/10/04 09:09:03;;;;;;;;;;;;;;;3.91;98.67;99874.00;4965397;28;19943;-80
2021/10/04 09:11:48;;;;;;;;;;;;;;;3.84;98.79;99879.34;4964698;28;19926;-79
2021/10/04 09:14:15;;;;;;;;;;;;;;;3.87;98.87;99879.31;4962953;28;19922;-80
2021/10/04 09:16:49;;;;;;;;;;;;;;;3.82;98.92;99877.59;4964801;28;20276;-79
2021/10/04 09:19:26;;;;;;;;;;;;;;;3.89;99.07;99877.50;4979837;28;20020;-80
2021/10/04 09:22:09;;;;;;;;;;;;;;;3.87;98.90;99881.91;4965185;28;19965;-80
2021/10/04 09:24:39;;;;;;;;;;;;;;;3.84;98.41;99874.09;4978053;28;20296;-80
2021/10/04 09:27:23;;;;;;;;;;;;;;;3.82;98.94;99874.97;4964008;28;19930;-79
2021/10/04 09:29:49;;;;;;;;;;;;;;;3.93;98.78;99866.13;4962590;28;19964;-79
2021/10/04 09:32:20;;;;;;;;;;;;;;;3.92;98.91;99865.22;4961207;28;20009;-80
2021/10/04 09:34:46;;;;;;;;;;;;;;;3.86;98.82;99854.84;4965532;28;19922;-80
2021/10/04 09:37:11;;;;;;;;;;;;;;;3.84;99.37;99861.00;4960166;28;19998;-80
2021/10/04 09:39:36;;;;;;;;;;;;;;;3.97;98.80;99865.16;4962646;28;19966;-80
2021/10/04 09:42:04;;;;;;;;;;;;;;;3.93;99.21;99866.97;4963872;28;19926;-79
2021/10/04 09:44:48;;;;;;;;;;;;;;;3.92;99.10;99867.00;4963760;28;20013;-79
2021/10/04 09:47:15;;;;;;;;;;;;;;;3.89;98.74;99867.03;4976685;28;20404;-79
2021/10/04 09:49:50;;;;;;;;;;;;;;;3.94;99.33;99867.81;4964424;28;19930;-79
2021/10/04 09:52:15;;;;;;;;;;;;;;;3.97;99.54;99862.53;4965196;28;20416;-78
2021/10/04 09:54:44;;;;;;;;;;;;;;;3.91;99.67;99868.75;4965275;28;20084;-79
2021/10/04 09:57:19;;;;;;;;;;;;;;;3.96;99.39;99873.94;4964358;28;19925;-80
2021/10/04 09:59:44;;;;;;;;;;;;;;;3.93;99.01;99879.22;4962261;28;19965;-80
2021/10/04 10:02:12;;;;;;;;;;;;;;;3.92;99.42;99873.09;4961571;28;19965;-79
2021/10/04 10:04:38;;;;;;;;;;;;;;;3.94;98.96;99880.94;4962989;28;20393;-79
2021/10/04 10:07:03;;;;;;;;;;;;;;;3.96;98.78;99868.69;4963915;28;19965;-79
2021/10/04 10:09:28;;;;;;;;;;;;;;;3.92;98.84;99873.09;4957337;28;19960;-80
2021/10/04 10:11:53;;;;;;;;;;;;;;;3.94;98.78;99867.81;4964178;28;19922;-80
2021/10/04 10:14:19;;;;;;;;;;;;;;;3.98;98.39;99866.91;4961803;28;20305;-79
2021/10/04 10:16:50;;;;;;;;;;;;;;;3.97;98.56;99860.81;4962656;28;19922;-79
2021/10/04 10:19:18;;;;;;;;;;;;;;;3.93;98.14;99848.63;4963822;28;19929;-79
2021/10/04 10:21:45;;;;;;;;;;;;;;;3.93;98.72;99853.00;4960191;28;20219;-79
2021/10/04 10:24:11;;;;;;;;;;;;;;;3.92;98.65;99852.13;4958936;28;20362;-79
2021/10/04 10:26:41;;;;;;;;;;;;;;;3.96;98.40;99853.81;4961855;28;19941;-80
2021/10/04 10:29:13;;;;;;;;;;;;;;;3.90;98.48;99851.28;4963555;28;20016;-80
2021/10/04 10:31:54;;;;;;;;;;;;;;;4.00;98.92;99854.63;4965019;28;20026;-80
2021/10/04 10:34:23;;;;;;;;;;;;;;;4.01;98.36;99856.38;4977821;28;19923;-79
2021/10/04 10:37:08;;;;;;;;;;;;;;;3.97;98.04;99852.06;4962725;28;19918;-81
2021/10/04 10:39:34;;;;;;;;;;;;;;;4.00;97.56;99852.00;4961803;28;19978;-80
2021/10/04 10:42:16;;;;;;;;;;;;;;;4.03;97.87;99849.34;4962972;28;20428;-80
2021/10/04 10:44:54;;;;;;;;;;;;;;;4.02;97.62;99849.38;4963231;28;19933;-80
2021/10/04 10:47:35;;;;;;;;;;;;;;;4.09;97.65;99845.78;4961773;28;20063;-79
2021/10/04 10:50:00;;;;;;;;;;;;;;;4.07;96.98;99853.66;4963529;28;19923;-80
2021/10/04 10:52:28;;;;;;;;;;;;;;;4.04;96.78;99853.72;4961826;28;20270;-80
2021/10/04 10:54:53;;;;;;;;;;;;;;;4.03;96.61;99854.59;4963101;28;19929;-79
2021/10/04 10:57:37;;;;;;;;;;;;;;;4.07;96.57;99851.03;4963556;28;19918;-81
2021/10/04 11:00:15;;;;;;;;;;;;;;;4.11;96.93;99829.09;4961931;28;19931;-79
2021/10/04 11:02:55;;;;;;;;;;;;;;;4.11;96.67;99830.88;4962620;28;19922;-80
2021/10/04 11:05:39;;;;;;;;;;;;;;;4.17;96.86;99833.41;4977552;28;19922;-79
2021/10/04 11:08:05;;;;;;;;;;;;;;;4.14;96.29;99839.53;4963659;28;19981;-80
2021/10/04 11:10:31;;;;;;;;;;;;;;;4.14;96.07;99836.06;4961931;28;20016;-81
2021/10/04 11:13:12;;;;;;;;;;;;;;;4.10;95.71;99834.38;4962700;28;20029;-79
2021/10/04 11:15:38;;;;;;;;;;;;;;;4.15;96.12;99838.66;4965615;28;19965;-80
2021/10/04 11:18:04;;;;;;;;;;;;;;;4.18;95.58;99833.38;4967127;28;19922;-78
2021/10/04 11:20:29;;;;;;;;;;;;;;;4.14;95.33;99829.06;4966116;28;19929;-80
2021/10/04 11:23:08;;;;;;;;;;;;;;;4.19;96.06;99829.84;4963899;28;20001;-78
2021/10/04 11:25:41;;;;;;;;;;;;;;;4.28;95.59;99831.47;4968022;28;19923;-79
2021/10/04 11:28:07;;;;;;;;;;;;;;;4.24;94.92;99823.66;4972850;28;19929;-80
2021/10/04 11:30:50;;;;;;;;;;;;;;;4.24;94.95;99826.28;4966267;28;19926;-79
2021/10/04 11:33:16;;;;;;;;;;;;;;;4.26;94.35;99832.38;4966604;28;19918;-80
2021/10/04 11:35:53;;;;;;;;;;;;;;;4.28;94.31;99838.47;4966096;28;19922;-80
2021/10/04 11:38:18;;;;;;;;;;;;;;;4.33;94.55;99827.00;4966501;28;19930;-80
2021/10/04 11:40:45;;;;;;;;;;;;;;;4.27;94.23;99832.34;4965016;28;19922;-80
2021/10/04 11:43:11;;;;;;;;;;;;;;;4.34;94.16;99833.09;4965541;28;19922;-80
2021/10/04 11:45:36;;;;;;;;;;;;;;;4.25;93.61;99839.38;4966139;28;19931;-80
2021/10/04 11:48:01;;;;;;;;;;;;;;;4.25;93.89;99838.53;4959232;28;19981;-80
2021/10/04 11:50:27;;;;;;;;;;;;;;;4.32;93.61;99838.41;4960667;28;19926;-80
2021/10/04 11:52:53;;;;;;;;;;;;;;;4.31;92.70;99826.19;4959883;28;20326;-80
2021/10/04 11:55:20;;;;;;;;;;;;;;;4.31;93.11;99822.69;4964964;28;19922;-80
2021/10/04 11:57:45;;;;;;;;;;;;;;;4.39;92.98;99822.53;4964645;28;19969;-80
2021/10/04 12:00:12;;;;;;;;;;;;;;;4.35;92.19;99816.50;4963249;28;19972;-80
2021/10/04 12:02:40;;;;;;;;;;;;;;;4.41;93.13;99818.16;4962900;28;19933;-80
2021/10/04 12:05:09;;;;;;;;;;;;;;;4.48;93.02;99820.66;4965242;28;19922;-80
2021/10/04 12:07:34;;;;;;;;;;;;;;;4.53;93.55;99818.81;4966656;28;19919;-79
2021/10/04 12:10:00;;;;;;;;;;;;;;;4.55;93.50;99811.75;4966352;28;20358;-80
2021/10/04 12:12:33;;;;;;;;;;;;;;;4.59;93.21;99811.72;4966285;28;19922;-80
2021/10/04 12:14:58;;;;;;;;;;;;;;;4.54;92.77;99809.16;4964738;28;19929;-80
2021/10/04 12:17:23;;;;;;;;;;;;;;;4.61;92.60;99809.91;4966055;28;19922;-80
2021/10/04 12:19:49;;;;;;;;;;;;;;;4.62;92.14;99809.88;4960184;28;19926;-80
2021/10/04 12:22:27;;;;;;;;;;;;;;;4.64;91.96;99799.34;4965545;28;19922;-81
2021/10/04 12:24:52;;;;;;;;;;;;;;;4.68;92.35;99795.81;4986582;28;19926;-79
2021/10/04 12:27:18;;;;;;;;;;;;;;;4.64;92.03;99794.13;4964772;28;19922;-80
2021/10/04 12:29:44;;;;;;;;;;;;;;;4.75;92.09;99796.53;4964267;28;20393;-81
2021/10/04 12:32:23;;;;;;;;;;;;;;;4.70;91.10;99786.97;4965936;28;20073;-81
2021/10/04 12:35:03;;;;;;;;;;;;;;;4.69;90.82;99792.25;4965111;28;19923;-79
2021/10/04 12:37:30;;;;;;;;;;;;;;;4.75;90.91;99791.28;4965805;28;19922;-81
2021/10/04 12:39:55;;;;;;;;;;;;;;;4.83;90.96;99789.38;4964691;28;20417;-80
2021/10/04 12:42:21;;;;;;;;;;;;;;;4.83;89.96;99790.25;4963955;28;20017;-80
2021/10/04 12:44:47;;;;;;;;;;;;;;;4.82;90.08;99791.16;4965175;28;19966;-80
2021/10/04 12:47:13;;;;;;;;;;;;;;;4.79;89.72;99791.22;4965729;28;19923;-81
2021/10/04 12:49:39;;;;;;;;;;;;;;;5.04;92.21;99782.84;4959620;28;19922;-80
2021/10/04 12:52:05;;;;;;;;;;;;;;;5.17;94.26;99778.19;4963326;28;20017;-80
2021/10/04 12:54:32;;;;;;;;;;;;;;;5.01;95.72;99782.88;4965357;28;19926;-80
2021/10/04 12:56:57;;;;;;;;;;;;;;;4.85;97.22;99777.97;4965523;28;19973;-80
2021/10/04 12:59:27;;;;;;;;;;;;;;;4.93;99.50;99766.44;4963996;28;19958;-79
2021/10/04 13:01:52;;;;;;;;;;;;;;;5.11;100.00;99768.69;4963341;28;19954;-79
2021/10/04 13:04:25;;;;;;;;;;;;;;;5.51;100.00;99759.94;4964015;28;19918;-80
2021/10/04 13:06:50;;;;;;;;;;;;;;;6.07;100.00;99764.78;4964757;28;19929;-79
2021/10/04 13:09:15;;;;;;;;;;;;;;;6.67;100.00;99763.25;4965503;28;19922;-79
2021/10/04 13:11:46;;;;;;;;;;;;;;;7.17;100.00;99767.13;4963793;28;19930;-80
2021/10/04 13:14:11;;;;;;;;;;;;;;;7.56;100.00;99765.09;4962005;28;20012;-80
2021/10/04 13:16:37;;;;;;;;;;;;;;;7.77;100.00;99767.94;4964624;28;20020;-80
2021/10/04 13:19:02;;;;;;;;;;;;;;;7.98;100.00;99767.25;4964827;28;19927;-80
2021/10/04 13:21:27;;;;;;;;;;;;;;;8.17;100.00;99767.53;4964662;28;20362;-79
2021/10/04 13:23:53;;;;;;;;;;;;;;;8.38;100.00;99759.78;4964043;28;19922;-80
2021/10/04 13:26:19;;;;;;;;;;;;;;;8.47;100.00;99758.63;4965466;28;19923;-80
2021/10/04 13:28:45;;;;;;;;;;;;;;;8.62;100.00;99758.09;4963201;28;19933;-80
2021/10/04 13:31:14;;;;;;;;;;;;;;;8.67;100.00;99761.44;4964309;28;20374;-79
2021/10/04 13:33:43;;;;;;;;;;;;;;;8.76;100.00;99760.28;4965097;28;19922;-80
2021/10/04 13:36:09;;;;;;;;;;;;;;;8.80;100.00;99755.72;4963139;28;19922;-81
2021/10/04 13:38:35;;;;;;;;;;;;;;;8.90;100.00;99762.38;4964656;28;19927;-79
2021/10/04 13:41:01;;;;;;;;;;;;;;;9.01;100.00;99748.78;4964549;28;19922;-80
2021/10/04 13:43:27;;;;;;;;;;;;;;;9.19;100.00;99749.88;4962580;28;20837;-80
2021/10/04 13:45:52;;;;;;;;;;;;;;;9.19;100.00;99748.13;4963874;28;19918;-79
2021/10/04 13:48:18;;;;;;;;;;;;;;;9.29;100.00;99742.50;4964586;28;19981;-79
2021/10/04 13:50:44;;;;;;;;;;;;;;;9.38;100.00;99755.31;4963655;28;19919;-78
2021/10/04 13:53:09;;;;;;;;;;;;;;;9.41;100.00;99752.56;4964519;28;19975;-79
2021/10/04 13:55:34;;;;;;;;;;;;;;;9.42;100.00;99751.66;4963125;28;19926;-78
2021/10/04 13:58:00;;;;;;;;;;;;;;;9.55;100.00;99742.31;4963018;28;19919;-80
2021/10/04 14:00:25;;;;;;;;;;;;;;;9.59;100.00;99746.56;4962408;28;19926;-79
2021/10/04 14:02:50;;;;;;;;;;;;;;;9.64;100.00;99744.59;4962962;28;20037;-79
2021/10/04 14:05:17;;;;;;;;;;;;;;;9.71;100.00;99741.72;4959226;28;19930;-80
2021/10/04 14:07:42;;;;;;;;;;;;;;;9.77;100.00;99738.81;4965268;28;19973;-79
2021/10/04 14:10:08;;;;;;;;;;;;;;;9.79;100.00;99742.25;4963136;28;20346;-79
2021/10/04 14:12:33;;;;;;;;;;;;;;;9.87;100.00;99734.88;4963348;28;20290;-78
2021/10/04 14:15:00;;;;;;;;;;;;;;;9.91;100.00;99739.13;4959011;28;19925;-79
2021/10/04 14:17:25;;;;;;;;;;;;;;;9.98;100.00;99737.94;4960836;28;20400;-79
2021/10/04 14:19:51;;;;;;;;;;;;;;;10.03;100.00;99736.91;4962269;28;19918;-80
2021/10/04 14:22:16;;;;;;;;;;;;;;;10.07;100.00;99730.53;4946857;28;19922;-80
2021/10/04 14:24:42;;;;;;;;;;;;;;;9.91;100.00;99728.53;4961982;28;19929;-81
2021/10/04 14:27:07;;;;;;;;;;;;;;;8.15;100.00;99732.41;4961094;28;19930;-79
2021/10/04 14:29:33;;;;;;;;;;;;;;;7.25;100.00;99736.16;4960515;28;20012;-79
2021/10/04 14:31:58;;;;;;;;;;;;;;;6.77;100.00;99737.53;4955832;28;19933;-79
2021/10/04 14:34:23;;;;;;;;;;;;;;;6.54;100.00;99740.78;4962066;28;19923;-79
2021/10/04 14:36:49;;;;;;;;;;;;;;;6.22;100.00;99731.97;4962180;28;19927;-80
2021/10/04 14:39:14;;;;;;;;;;;;;;;6.09;100.00;99728.78;4963547;28;19919;-79
2021/10/04 14:41:40;;;;;;;;;;;;;;;5.92;100.00;99721.31;4963094;28;19922;-80
2021/10/04 14:44:05;;;;;;;;;;;;;;;5.81;100.00;99718.94;4960763;28;19929;-79
2021/10/04 14:46:31;;;;;;;;;;;;;;;5.72;100.00;99713.03;4963241;28;20016;-79
2021/10/04 14:48:56;;;;;;;;;;;;;;;5.73;100.00;99715.63;4966597;28;19929;-79
2021/10/04 14:51:22;;;;;;;;;;;;;;;5.59;100.00;99712.47;4966230;28;19973;-79
2021/10/04 14:53:47;;;;;;;;;;;;;;;5.55;100.00;99708.16;4967095;28;20386;-79
2021/10/04 14:56:13;;;;;;;;;;;;;;;5.43;100.00;99697.03;4967099;28;19977;-79
2021/10/04 14:58:38;;;;;;;;;;;;;;;5.55;100.00;99702.91;4966072;28;19929;-80
2021/10/04 15:01:03;;;;;;;;;;;;;;;5.36;100.00;99699.84;4965256;28;20032;-80
2021/10/04 15:03:29;;;;;;;;;;;;;;;4.97;100.00;99703.31;4964548;28;19930;-80
2021/10/04 15:05:55;;;;;;;;;;;;;;;4.73;100.00;99700.31;4960596;28;20025;-79
2021/10/04 15:08:20;;;;;;;;;;;;;;;4.58;100.00;99699.75;4965745;28;19922;-80
2021/10/04 15:10:45;;;;;;;;;;;;;;;4.46;100.00;99693.84;4963573;28;19923;-80
2021/10/04 15:13:12;;;;;;;;;;;;;;;4.46;100.00;99701.72;4961866;28;19926;-80
2021/10/04 15:15:37;;;;;;;;;;;;;;;4.35;100.00;99708.94;4966627;28;19919;-79
2021/10/04 15:18:03;;;;;;;;;;;;;;;4.27;100.00;99714.31;4962842;28;19942;-79
2021/10/04 15:20:28;;;;;;;;;;;;;;;4.11;100.00;99708.47;4966533;28;20269;-81
2021/10/04 15:22:53;;;;;;;;;;;;;;;4.12;100.00;99707.59;4965573;28;19922;-80
2021/10/04 15:25:19;;;;;;;;;;;;;;;4.05;100.00;99705.94;4965921;28;19922;-80
2021/10/04 15:27:44;;;;;;;;;;;;;;;3.98;100.00;99701.72;4966126;28;20501;-80
2021/10/04 15:30:09;;;;;;;;;;;;;;;3.93;100.00;99698.31;4964403;28;19929;-81
2021/10/04 15:32:35;;;;;;;;;;;;;;;3.88;100.00;99702.75;4966909;28;19922;-81
2021/10/04 15:35:00;;;;;;;;;;;;;;;3.84;100.00;99690.59;4966425;28;19919;-79
2021/10/04 15:37:25;;;;;;;;;;;;;;;3.80;100.00;99695.03;4965424;28;19925;-80
2021/10/04 15:39:51;;;;;;;;;;;;;;;3.73;99.53;99694.25;4965946;28;20270;-77
2021/10/04 15:42:16;;;;;;;;;;;;;;;3.67;99.32;99691.75;4964864;28;19953;-80
2021/10/04 15:44:42;;;;;;;;;;;;;;;3.60;98.98;99696.22;4963101;28;19922;-79
2021/10/04 15:47:07;;;;;;;;;;;;;;;3.51;98.48;99687.63;4966513;28;19922;-80
2021/10/04 15:49:33;;;;;;;;;;;;;;;3.47;97.92;99685.97;4966150;28;20282;-80
2021/10/04 15:51:58;;;;;;;;;;;;;;;3.47;97.94;99691.22;4966203;28;19922;-80
2021/10/04 15:54:23;;;;;;;;;;;;;;;3.40;97.84;99688.69;4965439;28;19953;-79
2021/10/04 15:56:49;;;;;;;;;;;;;;;3.33;97.38;99687.03;4966130;28;20374;-80
2021/10/04 15:59:14;;;;;;;;;;;;;;;3.32;97.46;99690.56;4961996;28;19922;-79
2021/10/04 16:01:40;;;;;;;;;;;;;;;3.27;97.34;99689.72;4964689;28;19926;-80
2021/10/04 16:04:05;;;;;;;;;;;;;;;3.20;97.44;99691.56;4964728;28;19918;-80
2021/10/04 16:06:31;;;;;;;;;;;;;;;3.23;97.58;99688.06;4963587;28;19922;-79
2021/10/04 16:08:56;;;;;;;;;;;;;;;3.14;97.34;99685.56;4962086;28;20422;-80
2021/10/04 16:11:23;;;;;;;;;;;;;;;3.11;97.43;99678.59;4961037;28;19989;-79
2021/10/04 16:13:48;;;;;;;;;;;;;;;3.07;97.11;99683.03;4957615;28;20373;-79
2021/10/04 16:16:15;;;;;;;;;;;;;;;3.05;96.93;99679.56;4962777;28;19977;-80
2021/10/04 16:18:40;;;;;;;;;;;;;;;3.01;97.19;99679.63;4963083;28;19923;-80
2021/10/04 16:21:08;;;;;;;;;;;;;;;3.02;96.90;99681.38;4964209;28;20293;-80
2021/10/04 16:23:33;;;;;;;;;;;;;;;2.95;97.11;99671.88;4978687;28;19930;-80
2021/10/04 16:25:59;;;;;;;;;;;;;;;2.96;97.01;99674.47;4965849;28;19968;-80
2021/10/04 16:28:24;;;;;;;;;;;;;;;2.90;97.17;99674.53;4962792;28;19929;-80
2021/10/04 16:30:49;;;;;;;;;;;;;;;2.85;97.06;99663.28;4965602;28;19992;-79
2021/10/04 16:33:16;;;;;;;;;;;;;;;3.77;100.00;99656.63;4962104;28;19925;-80
2021/10/04 16:35:41;;;;;;;;;;;;;;;4.65;100.00;99659.38;4965195;28;19922;-80
2021/10/04 16:38:07;;;;;;;;;;;;;;;3.86;100.00;99657.38;4963003;28;19937;-80
2021/10/04 16:40:32;;;;;;;;;;;;;;;3.39;100.00;99663.34;4962462;28;20382;-80
2021/10/04 16:42:58;;;;;;;;;;;;;;;3.19;99.54;99663.69;4964953;28;19966;-80
2021/10/04 16:45:23;;;;;;;;;;;;;;;3.00;99.12;99660.47;4964075;28;19914;-81
2021/10/04 16:47:48;;;;;;;;;;;;;;;2.90;98.61;99662.34;4964312;28;19926;-81
2021/10/04 16:50:14;;;;;;;;;;;;;;;2.89;98.52;99657.13;4963469;28;19965;-80
2021/10/04 16:52:40;;;;;;;;;;;;;;;2.81;98.17;99662.47;4964525;28;19929;-81
2021/10/04 16:55:07;;;;;;;;;;;;;;;2.70;97.90;99665.19;4963805;28;19918;-81
2021/10/04 16:57:33;;;;;;;;;;;;;;;2.76;97.82;99661.66;4964676;28;19970;-80
2021/10/04 16:59:58;;;;;;;;;;;;;;;2.76;97.49;99664.28;4961984;28;19926;-81
2021/10/04 17:02:23;;;;;;;;;;;;;;;2.66;97.62;99654.78;4964896;28;19918;-80
2021/10/04 17:04:48;;;;;;;;;;;;;;;2.63;98.30;99655.72;4965220;28;19922;-81
2021/10/04 17:07:14;;;;;;;;;;;;;;;2.71;98.68;99658.22;4961568;28;19918;-79
2021/10/04 17:09:39;;;;;;;;;;;;;;;2.70;98.92;99661.72;4963897;28;19926;-80
2021/10/04 17:12:04;;;;;;;;;;;;;;;2.66;98.80;99663.50;4963132;28;19914;-80
2021/10/04 17:14:30;;;;;;;;;;;;;;;2.63;98.49;99658.34;4961960;28;20404;-79
2021/10/04 17:16:56;;;;;;;;;;;;;;;2.56;97.48;99659.28;4964859;28;19921;-80
2021/10/04 17:19:21;;;;;;;;;;;;;;;2.48;97.18;99645.44;4963640;28;19926;-80
2021/10/04 17:21:46;;;;;;;;;;;;;;;2.51;97.08;99640.16;4965702;28;20361;-79
2021/10/04 17:24:12;;;;;;;;;;;;;;;2.51;96.34;99655.88;4964669;28;19929;-79
2021/10/04 17:26:37;;;;;;;;;;;;;;;2.44;96.36;99651.56;4964216;28;19972;-80
2021/10/04 17:29:03;;;;;;;;;;;;;;;2.40;96.29;99652.50;4963634;28;20013;-80
2021/10/04 17:31:29;;;;;;;;;;;;;;;2.43;95.59;99647.25;4964290;28;19925;-80
2021/10/04 17:33:55;;;;;;;;;;;;;;;2.34;95.54;99654.28;4964290;28;20535;-80
2021/10/04 17:36:21;;;;;;;;;;;;;;;2.37;95.53;99656.00;4963453;28;20322;-80
2021/10/04 17:38:47;;;;;;;;;;;;;;;2.30;95.52;99662.22;4964145;28;19923;-79
2021/10/04 17:41:13;;;;;;;;;;;;;;;2.25;95.17;99662.25;4963844;28;20049;-80
2021/10/04 17:43:38;;;;;;;;;;;;;;;2.36;95.16;99657.78;4963046;28;20016;-80
2021/10/04 17:46:03;;;;;;;;;;;;;;;2.36;95.65;99663.00;4964412;28;19981;-81
2021/10/04 17:48:29;;;;;;;;;;;;;;;2.44;96.60;99664.66;4964201;28;19977;-81
2021/10/04 17:50:55;;;;;;;;;;;;;;;2.39;96.72;99669.94;4964267;28;19919;-81
2021/10/04 17:53:20;;;;;;;;;;;;;;;2.41;96.69;99662.06;4964426;28;20009;-80
2021/10/04 17:55:46;;;;;;;;;;;;;;;2.45;96.36;99655.94;4964158;28;19976;-80
2021/10/04 17:58:11;;;;;;;;;;;;;;;2.42;96.08;99659.44;4963337;28;19958;-80
2021/10/04 18:00:36;;;;;;;;;;;;;;;2.41;95.51;99655.09;4962830;28;19930;-80
2021/10/04 18:03:02;;;;;;;;;;;;;;;2.39;95.48;99654.25;4964298;28;20016;-80
2021/10/04 18:05:27;;;;;;;;;;;;;;;2.36;95.20;99657.78;4963862;28;19919;-81
2021/10/04 18:07:53;;;;;;;;;;;;;;;2.32;94.98;99658.69;4963162;28;19927;-80
2021/10/04 18:10:18;;;;;;;;;;;;;;;2.31;94.77;99656.97;4963818;28;19918;-81
2021/10/04 18:12:43;;;;;;;;;;;;;;;2.24;94.33;99655.28;4963285;28;20463;-79
2021/10/04 18:15:09;;;;;;;;;;;;;;;2.25;94.45;99659.66;4962380;28;20005;-80
2021/10/04 18:17:34;;;;;;;;;;;;;;;2.30;93.96;99662.22;4964040;28;19922;-80
2021/10/04 18:19:59;;;;;;;;;;;;;;;2.25;93.86;99661.38;4963543;28;19919;-80
2021/10/04 18:22:26;;;;;;;;;;;;;;;2.19;93.77;99662.31;4962964;28;19922;-80
2021/10/04 18:24:56;;;;;;;;;;;;;;;2.23;93.69;99650.94;4963292;28;19918;-80
2021/10/04 18:27:22;;;;;;;;;;;;;;;2.20;93.48;99650.97;4963392;28;19919;-80
2021/10/04 18:29:47;;;;;;;;;;;;;;;2.13;93.11;99662.38;4961924;28;20038;-80
2021/10/04 18:32:12;;;;;;;;;;;;;;;2.14;92.96;99661.50;4963826;28;19925;-81
2021/10/04 18:34:38;;;;;;;;;;;;;;;2.12;92.27;99663.25;4963800;28;20323;-80
2021/10/04 18:37:03;;;;;;;;;;;;;;;2.09;92.16;99663.28;4963708;28;19944;-79
2021/10/04 18:39:28;;;;;;;;;;;;;;;2.06;91.88;99668.53;4962952;28;19965;-80
2021/10/04 18:41:54;;;;;;;;;;;;;;;2.10;91.68;99675.47;4962637;28;19924;-81
2021/10/04 18:44:19;;;;;;;;;;;;;;;2.03;91.50;99673.78;4962250;28;19922;-80
2021/10/04 18:46:45;;;;;;;;;;;;;;;2.03;91.79;99668.56;4963087;28;19925;-81
2021/10/04 18:49:10;;;;;;;;;;;;;;;1.99;91.05;99676.47;4963190;28;19944;-79
2021/10/04 18:51:36;;;;;;;;;;;;;;;2.03;90.69;99672.06;4962274;28;19918;-81
2021/10/04 18:54:01;;;;;;;;;;;;;;;1.95;90.40;99686.97;4963124;28;20277;-81
2021/10/04 18:56:27;;;;;;;;;;;;;;;1.96;90.48;99689.56;4963818;28;19923;-80
2021/10/04 18:58:52;;;;;;;;;;;;;;;1.89;90.31;99684.41;4962091;28;19918;-80
2021/10/04 19:01:17;;;;;;;;;;;;;;;1.90;90.20;99675.66;4962698;28;20361;-80